map of NCY home
NCY - Airport
Location
City:  Annecy, Rhône-Alpes, France
Name:Meythet
ICAO:LFLP
IATA:NCY

Details
Type:Airport (Aerodrome, Airfield)
Use:Public/Civil
Latitude:45°55'51"N (45.930775)
Longitude:6°06'23"E (6.106289)
Elevation:1519 ft (463 m)
Variation:1.84°E (WMM2015 magnetic declination)
0.12° annual change
Runways:2
Longest:5299 × 98 ft (1615 × 30 m)

Time
Time Zone:UTC+1 (DST+2)
Local Time:

Weather
METAR:LFLP 231430Z AUTO 26010KT 210V300 CAVOK 28/14 Q1019 TEMPO VRB15G35KT 4000 SHRA FEW025CB SCT030TCU BKN035
TAF:LFLP 231400Z 2315/2415 20006KT CAVOK
TEMPO 2316/2324 VRB15G35KT 4000 SHRA FEW025CB SCT030TCU BKN035 PROB30
TEMPO 2318/2323 VRB20G45KT 2000 TSRA SCT025CB BKN030TCU
BECMG 2400/2402 32008KT BKN025
BECMG 2406/2408 36015G25KT CAVOK

Related Locations
Nearby:
Farthest:CHT: 12241 mi / 19700 km
Waitangi [Tuuta], CIT, NZ

Find:

   beyond  
but within

Other Information
Maps:
NOTAMs:
Links:
Sources:

  
  • flag of France
  • flag of Rhône-Alpes
  

Sectional Chart

Flight Planning
at skyvector.com

Satellite Image

Google Maps Satellite view

 

Copyright © 2004-2018 Karl L. Swartz. All rights reserved.
The Great Circle Mapper name and logo are trademarks of the Great Circle Mapper.
All other trademarks mentioned herein belong to their respective owners.
Please see credits for attibutions and further copyright information.

  Follow gcmap on Facebook Follow gcmap on Twitter Follow gcmap on Google+ GCmap on LinkedIn

hCard Microformat

Geo Microformat